sensor_id;sensor_type;location;lat;lon;timestamp;P1;durP1;ratioP1;P2;durP2;ratioP2
31386;SDS011;18017;50.124;8.688;2022-08-19T00:01:48;7.05;;;4.75;;
31386;SDS011;18017;50.124;8.688;2022-08-19T00:04:16;7.68;;;5.22;;
31386;SDS011;18017;50.124;8.688;2022-08-19T00:06:44;9.60;;;5.20;;
31386;SDS011;18017;50.124;8.688;2022-08-19T00:09:12;7.65;;;4.55;;
31386;SDS011;18017;50.124;8.688;2022-08-19T00:11:40;10.75;;;5.22;;
31386;SDS011;18017;50.124;8.688;2022-08-19T00:14:08;9.23;;;5.22;;
31386;SDS011;18017;50.124;8.688;2022-08-19T00:16:36;11.27;;;5.10;;
31386;SDS011;18017;50.124;8.688;2022-08-19T00:19:03;9.43;;;5.10;;
31386;SDS011;18017;50.124;8.688;2022-08-19T00:21:30;7.63;;;4.70;;
31386;SDS011;18017;50.124;8.688;2022-08-19T00:23:56;8.85;;;5.40;;
31386;SDS011;18017;50.124;8.688;2022-08-19T00:26:26;9.63;;;4.90;;
31386;SDS011;18017;50.124;8.688;2022-08-19T00:28:53;8.07;;;5.20;;
31386;SDS011;18017;50.124;8.688;2022-08-19T00:31:19;9.82;;;5.18;;
31386;SDS011;18017;50.124;8.688;2022-08-19T00:33:45;11.30;;;5.18;;
31386;SDS011;18017;50.124;8.688;2022-08-19T00:36:12;9.75;;;5.65;;
31386;SDS011;18017;50.124;8.688;2022-08-19T00:38:38;9.85;;;5.25;;
31386;SDS011;18017;50.124;8.688;2022-08-19T00:41:09;10.00;;;5.05;;
31386;SDS011;18017;50.124;8.688;2022-08-19T00:43:39;12.83;;;5.23;;
31386;SDS011;18017;50.124;8.688;2022-08-19T00:46:06;10.55;;;5.07;;
31386;SDS011;18017;50.124;8.688;2022-08-19T00:48:32;9.88;;;5.93;;
31386;SDS011;18017;50.124;8.688;2022-08-19T00:51:00;8.60;;;5.00;;
31386;SDS011;18017;50.124;8.688;2022-08-19T00:53:27;10.05;;;5.25;;
31386;SDS011;18017;50.124;8.688;2022-08-19T00:55:55;12.52;;;5.55;;
31386;SDS011;18017;50.124;8.688;2022-08-19T00:58:24;9.25;;;4.90;;
31386;SDS011;18017;50.124;8.688;2022-08-19T01:00:53;9.23;;;5.07;;
31386;SDS011;18017;50.124;8.688;2022-08-19T01:03:20;8.52;;;5.03;;
31386;SDS011;18017;50.124;8.688;2022-08-19T01:05:47;9.65;;;5.22;;
31386;SDS011;18017;50.124;8.688;2022-08-19T01:08:15;11.45;;;4.80;;
31386;SDS011;18017;50.124;8.688;2022-08-19T01:10:50;8.60;;;5.30;;
31386;SDS011;18017;50.124;8.688;2022-08-19T01:13:22;9.50;;;4.88;;
31386;SDS011;18017;50.124;8.688;2022-08-19T01:15:55;8.48;;;5.15;;
31386;SDS011;18017;50.124;8.688;2022-08-19T01:18:23;8.80;;;4.88;;
31386;SDS011;18017;50.124;8.688;2022-08-19T01:20:52;8.88;;;4.90;;
31386;SDS011;18017;50.124;8.688;2022-08-19T01:23:21;9.50;;;4.90;;
31386;SDS011;18017;50.124;8.688;2022-08-19T01:26:07;8.00;;;4.88;;
31386;SDS011;18017;50.124;8.688;2022-08-19T01:28:33;7.22;;;4.78;;
31386;SDS011;18017;50.124;8.688;2022-08-19T01:30:58;9.05;;;4.72;;
31386;SDS011;18017;50.124;8.688;2022-08-19T01:33:24;8.13;;;4.93;;
31386;SDS011;18017;50.124;8.688;2022-08-19T01:35:49;9.43;;;4.72;;
31386;SDS011;18017;50.124;8.688;2022-08-19T01:38:22;8.00;;;4.65;;
31386;SDS011;18017;50.124;8.688;2022-08-19T01:40:50;6.82;;;4.65;;
31386;SDS011;18017;50.124;8.688;2022-08-19T01:43:15;8.02;;;4.57;;
31386;SDS011;18017;50.124;8.688;2022-08-19T01:45:42;7.03;;;4.45;;
31386;SDS011;18017;50.124;8.688;2022-08-19T01:48:07;8.65;;;4.55;;
31386;SDS011;18017;50.124;8.688;2022-08-19T01:50:34;7.40;;;4.20;;
31386;SDS011;18017;50.124;8.688;2022-08-19T01:53:01;10.05;;;4.78;;
31386;SDS011;18017;50.124;8.688;2022-08-19T01:55:30;8.02;;;4.43;;
31386;SDS011;18017;50.124;8.688;2022-08-19T01:57:57;9.82;;;4.13;;
31386;SDS011;18017;50.124;8.688;2022-08-19T02:00:25;8.93;;;4.40;;
31386;SDS011;18017;50.124;8.688;2022-08-19T02:02:54;7.68;;;4.38;;
31386;SDS011;18017;50.124;8.688;2022-08-19T02:05:20;8.77;;;4.75;;
31386;SDS011;18017;50.124;8.688;2022-08-19T02:07:46;10.68;;;4.57;;
31386;SDS011;18017;50.124;8.688;2022-08-19T02:10:14;6.35;;;4.50;;
31386;SDS011;18017;50.124;8.688;2022-08-19T02:12:42;7.47;;;4.00;;
31386;SDS011;18017;50.124;8.688;2022-08-19T02:15:08;7.07;;;3.90;;
31386;SDS011;18017;50.124;8.688;2022-08-19T02:17:34;6.72;;;4.22;;
31386;SDS011;18017;50.124;8.688;2022-08-19T02:20:00;9.43;;;4.55;;
31386;SDS011;18017;50.124;8.688;2022-08-19T02:22:26;8.05;;;4.35;;
31386;SDS011;18017;50.124;8.688;2022-08-19T02:24:52;8.75;;;3.95;;
31386;SDS011;18017;50.124;8.688;2022-08-19T02:27:19;7.18;;;3.97;;
31386;SDS011;18017;50.124;8.688;2022-08-19T02:29:48;8.45;;;4.25;;
31386;SDS011;18017;50.124;8.688;2022-08-19T02:32:16;9.93;;;4.28;;
31386;SDS011;18017;50.124;8.688;2022-08-19T02:34:44;7.55;;;3.90;;
31386;SDS011;18017;50.124;8.688;2022-08-19T02:37:10;8.23;;;4.18;;
31386;SDS011;18017;50.124;8.688;2022-08-19T02:39:56;7.22;;;4.10;;
31386;SDS011;18017;50.124;8.688;2022-08-19T02:42:21;10.25;;;4.57;;
31386;SDS011;18017;50.124;8.688;2022-08-19T02:44:47;8.00;;;4.20;;
31386;SDS011;18017;50.124;8.688;2022-08-19T02:47:12;6.28;;;4.47;;
31386;SDS011;18017;50.124;8.688;2022-08-19T02:49:40;6.20;;;3.92;;
31386;SDS011;18017;50.124;8.688;2022-08-19T02:52:06;7.40;;;3.70;;
31386;SDS011;18017;50.124;8.688;2022-08-19T02:54:31;9.38;;;4.10;;
31386;SDS011;18017;50.124;8.688;2022-08-19T02:56:57;8.00;;;3.88;;
31386;SDS011;18017;50.124;8.688;2022-08-19T02:59:23;7.97;;;3.88;;
31386;SDS011;18017;50.124;8.688;2022-08-19T03:01:51;7.60;;;3.92;;
31386;SDS011;18017;50.124;8.688;2022-08-19T03:04:16;6.82;;;3.60;;
31386;SDS011;18017;50.124;8.688;2022-08-19T03:06:45;7.90;;;4.00;;
31386;SDS011;18017;50.124;8.688;2022-08-19T03:09:12;7.50;;;3.97;;
31386;SDS011;18017;50.124;8.688;2022-08-19T03:11:38;8.80;;;3.80;;
31386;SDS011;18017;50.124;8.688;2022-08-19T03:14:05;6.38;;;3.78;;
31386;SDS011;18017;50.124;8.688;2022-08-19T03:16:34;8.27;;;3.58;;
31386;SDS011;18017;50.124;8.688;2022-08-19T03:19:05;6.03;;;3.47;;
31386;SDS011;18017;50.124;8.688;2022-08-19T03:21:32;7.07;;;3.63;;
31386;SDS011;18017;50.124;8.688;2022-08-19T03:24:00;5.93;;;3.58;;
31386;SDS011;18017;50.124;8.688;2022-08-19T03:26:29;7.18;;;3.42;;
31386;SDS011;18017;50.124;8.688;2022-08-19T03:28:54;11.68;;;4.05;;
31386;SDS011;18017;50.124;8.688;2022-08-19T03:31:21;8.15;;;4.03;;
31386;SDS011;18017;50.124;8.688;2022-08-19T03:33:48;6.95;;;3.28;;
31386;SDS011;18017;50.124;8.688;2022-08-19T03:36:17;8.27;;;3.28;;
31386;SDS011;18017;50.124;8.688;2022-08-19T03:38:47;10.30;;;4.30;;
31386;SDS011;18017;50.124;8.688;2022-08-19T03:41:19;7.47;;;3.80;;
31386;SDS011;18017;50.124;8.688;2022-08-19T03:43:46;8.10;;;3.58;;
31386;SDS011;18017;50.124;8.688;2022-08-19T03:46:14;8.07;;;3.70;;
31386;SDS011;18017;50.124;8.688;2022-08-19T03:48:48;8.35;;;3.83;;
31386;SDS011;18017;50.124;8.688;2022-08-19T03:51:32;6.45;;;3.42;;
31386;SDS011;18017;50.124;8.688;2022-08-19T03:54:00;7.93;;;3.60;;
31386;SDS011;18017;50.124;8.688;2022-08-19T03:56:28;8.68;;;3.50;;
31386;SDS011;18017;50.124;8.688;2022-08-19T03:58:55;9.23;;;3.80;;
31386;SDS011;18017;50.124;8.688;2022-08-19T04:01:23;9.25;;;3.42;;
31386;SDS011;18017;50.124;8.688;2022-08-19T04:03:53;6.10;;;3.58;;
31386;SDS011;18017;50.124;8.688;2022-08-19T04:06:25;6.22;;;3.55;;
31386;SDS011;18017;50.124;8.688;2022-08-19T04:08:52;8.63;;;3.35;;
31386;SDS011;18017;50.124;8.688;2022-08-19T04:11:21;7.90;;;3.60;;
31386;SDS011;18017;50.124;8.688;2022-08-19T04:13:50;7.28;;;3.30;;
31386;SDS011;18017;50.124;8.688;2022-08-19T04:16:17;7.53;;;3.65;;
31386;SDS011;18017;50.124;8.688;2022-08-19T04:18:45;6.78;;;3.78;;
31386;SDS011;18017;50.124;8.688;2022-08-19T04:21:15;5.22;;;3.53;;
31386;SDS011;18017;50.124;8.688;2022-08-19T04:23:45;8.75;;;3.50;;
31386;SDS011;18017;50.124;8.688;2022-08-19T04:26:12;6.40;;;3.80;;
31386;SDS011;18017;50.124;8.688;2022-08-19T04:28:39;8.02;;;3.25;;
31386;SDS011;18017;50.124;8.688;2022-08-19T04:31:04;9.15;;;3.90;;
31386;SDS011;18017;50.124;8.688;2022-08-19T04:33:30;7.85;;;3.75;;
31386;SDS011;18017;50.124;8.688;2022-08-19T04:35:56;4.70;;;3.22;;
31386;SDS011;18017;50.124;8.688;2022-08-19T04:38:23;7.88;;;3.38;;
31386;SDS011;18017;50.124;8.688;2022-08-19T04:40:50;5.75;;;3.40;;
31386;SDS011;18017;50.124;8.688;2022-08-19T04:43:35;6.75;;;3.55;;
31386;SDS011;18017;50.124;8.688;2022-08-19T04:46:06;5.60;;;3.63;;
31386;SDS011;18017;50.124;8.688;2022-08-19T04:48:33;8.60;;;3.70;;
31386;SDS011;18017;50.124;8.688;2022-08-19T04:50:59;9.80;;;3.88;;
31386;SDS011;18017;50.124;8.688;2022-08-19T04:53:29;9.90;;;3.67;;
31386;SDS011;18017;50.124;8.688;2022-08-19T04:55:56;5.13;;;3.10;;
31386;SDS011;18017;50.124;8.688;2022-08-19T04:58:24;9.35;;;3.60;;
31386;SDS011;18017;50.124;8.688;2022-08-19T05:00:51;8.18;;;3.60;;
31386;SDS011;18017;50.124;8.688;2022-08-19T05:03:17;8.25;;;3.70;;
31386;SDS011;18017;50.124;8.688;2022-08-19T05:05:46;11.68;;;3.65;;
31386;SDS011;18017;50.124;8.688;2022-08-19T05:08:17;6.25;;;3.38;;
31386;SDS011;18017;50.124;8.688;2022-08-19T05:10:46;8.23;;;4.05;;
31386;SDS011;18017;50.124;8.688;2022-08-19T05:13:13;8.57;;;3.50;;
31386;SDS011;18017;50.124;8.688;2022-08-19T05:15:39;11.65;;;3.60;;
31386;SDS011;18017;50.124;8.688;2022-08-19T05:18:05;9.18;;;3.13;;
31386;SDS011;18017;50.124;8.688;2022-08-19T05:20:49;6.70;;;3.50;;
31386;SDS011;18017;50.124;8.688;2022-08-19T05:23:33;8.52;;;3.70;;
31386;SDS011;18017;50.124;8.688;2022-08-19T05:25:59;6.70;;;3.40;;
31386;SDS011;18017;50.124;8.688;2022-08-19T05:28:25;7.75;;;3.72;;
31386;SDS011;18017;50.124;8.688;2022-08-19T05:30:51;5.72;;;3.53;;
31386;SDS011;18017;50.124;8.688;2022-08-19T05:33:17;6.20;;;3.38;;
31386;SDS011;18017;50.124;8.688;2022-08-19T05:35:43;9.30;;;3.58;;
31386;SDS011;18017;50.124;8.688;2022-08-19T05:38:09;5.95;;;2.90;;
31386;SDS011;18017;50.124;8.688;2022-08-19T05:40:36;8.93;;;3.33;;
31386;SDS011;18017;50.124;8.688;2022-08-19T05:43:04;7.68;;;3.58;;
31386;SDS011;18017;50.124;8.688;2022-08-19T05:45:31;8.70;;;3.50;;
31386;SDS011;18017;50.124;8.688;2022-08-19T05:47:56;7.93;;;3.40;;
31386;SDS011;18017;50.124;8.688;2022-08-19T05:50:23;4.30;;;2.75;;
31386;SDS011;18017;50.124;8.688;2022-08-19T05:52:50;6.82;;;3.30;;
31386;SDS011;18017;50.124;8.688;2022-08-19T05:55:16;5.20;;;3.13;;
31386;SDS011;18017;50.124;8.688;2022-08-19T05:57:42;5.63;;;3.20;;
31386;SDS011;18017;50.124;8.688;2022-08-19T06:00:07;6.05;;;2.80;;
31386;SDS011;18017;50.124;8.688;2022-08-19T06:02:35;5.43;;;2.90;;
31386;SDS011;18017;50.124;8.688;2022-08-19T06:05:02;6.53;;;2.72;;
31386;SDS011;18017;50.124;8.688;2022-08-19T06:07:28;5.03;;;2.65;;
31386;SDS011;18017;50.124;8.688;2022-08-19T06:09:54;3.90;;;2.45;;
31386;SDS011;18017;50.124;8.688;2022-08-19T06:12:20;7.25;;;2.47;;
31386;SDS011;18017;50.124;8.688;2022-08-19T06:14:55;8.05;;;2.50;;
31386;SDS011;18017;50.124;8.688;2022-08-19T06:17:21;6.05;;;2.15;;
31386;SDS011;18017;50.124;8.688;2022-08-19T06:19:50;4.40;;;2.10;;
31386;SDS011;18017;50.124;8.688;2022-08-19T06:22:16;5.13;;;2.40;;
31386;SDS011;18017;50.124;8.688;2022-08-19T06:24:42;5.00;;;2.20;;
31386;SDS011;18017;50.124;8.688;2022-08-19T06:27:08;3.75;;;2.05;;
31386;SDS011;18017;50.124;8.688;2022-08-19T06:29:34;2.90;;;1.85;;
31386;SDS011;18017;50.124;8.688;2022-08-19T06:32:00;9.07;;;2.20;;
31386;SDS011;18017;50.124;8.688;2022-08-19T06:34:28;2.50;;;2.00;;
31386;SDS011;18017;50.124;8.688;2022-08-19T06:36:57;5.13;;;1.98;;
31386;SDS011;18017;50.124;8.688;2022-08-19T06:39:27;5.15;;;2.03;;
31386;SDS011;18017;50.124;8.688;2022-08-19T06:41:56;3.90;;;1.90;;
31386;SDS011;18017;50.124;8.688;2022-08-19T06:44:24;4.47;;;1.70;;
31386;SDS011;18017;50.124;8.688;2022-08-19T06:46:51;2.75;;;1.38;;
31386;SDS011;18017;50.124;8.688;2022-08-19T06:49:18;4.38;;;1.60;;
31386;SDS011;18017;50.124;8.688;2022-08-19T06:51:44;2.22;;;1.70;;
31386;SDS011;18017;50.124;8.688;2022-08-19T06:54:15;3.75;;;1.60;;
31386;SDS011;18017;50.124;8.688;2022-08-19T06:56:42;3.85;;;1.58;;
31386;SDS011;18017;50.124;8.688;2022-08-19T06:59:11;4.88;;;1.50;;
31386;SDS011;18017;50.124;8.688;2022-08-19T07:01:40;5.47;;;1.40;;
31386;SDS011;18017;50.124;8.688;2022-08-19T07:04:10;2.75;;;1.35;;
31386;SDS011;18017;50.124;8.688;2022-08-19T07:06:37;2.67;;;1.33;;
31386;SDS011;18017;50.124;8.688;2022-08-19T07:09:03;3.78;;;1.33;;
31386;SDS011;18017;50.124;8.688;2022-08-19T07:11:30;3.55;;;1.30;;
31386;SDS011;18017;50.124;8.688;2022-08-19T07:13:55;4.68;;;1.42;;
31386;SDS011;18017;50.124;8.688;2022-08-19T07:16:21;4.95;;;1.50;;
31386;SDS011;18017;50.124;8.688;2022-08-19T07:18:49;3.47;;;1.20;;
31386;SDS011;18017;50.124;8.688;2022-08-19T07:21:18;3.30;;;1.50;;
31386;SDS011;18017;50.124;8.688;2022-08-19T07:23:46;4.75;;;1.55;;
31386;SDS011;18017;50.124;8.688;2022-08-19T07:26:14;5.00;;;1.10;;
31386;SDS011;18017;50.124;8.688;2022-08-19T07:28:45;2.80;;;1.10;;
31386;SDS011;18017;50.124;8.688;2022-08-19T07:31:15;3.30;;;1.30;;
31386;SDS011;18017;50.124;8.688;2022-08-19T07:33:43;3.13;;;1.10;;
31386;SDS011;18017;50.124;8.688;2022-08-19T07:36:11;2.88;;;0.95;;
31386;SDS011;18017;50.124;8.688;2022-08-19T07:38:39;6.80;;;1.20;;
31386;SDS011;18017;50.124;8.688;2022-08-19T07:41:10;3.22;;;1.00;;
31386;SDS011;18017;50.124;8.688;2022-08-19T07:43:37;2.42;;;1.00;;
31386;SDS011;18017;50.124;8.688;2022-08-19T07:46:04;3.05;;;0.90;;
31386;SDS011;18017;50.124;8.688;2022-08-19T07:48:32;5.40;;;1.20;;
31386;SDS011;18017;50.124;8.688;2022-08-19T07:51:00;3.15;;;1.27;;
31386;SDS011;18017;50.124;8.688;2022-08-19T07:53:27;1.60;;;0.93;;
31386;SDS011;18017;50.124;8.688;2022-08-19T07:55:54;1.85;;;0.85;;
31386;SDS011;18017;50.124;8.688;2022-08-19T07:58:23;2.92;;;0.90;;
31386;SDS011;18017;50.124;8.688;2022-08-19T08:00:49;1.25;;;0.73;;
31386;SDS011;18017;50.124;8.688;2022-08-19T08:03:17;2.22;;;0.70;;
31386;SDS011;18017;50.124;8.688;2022-08-19T08:05:43;3.58;;;0.82;;
31386;SDS011;18017;50.124;8.688;2022-08-19T08:08:28;1.33;;;0.55;;
31386;SDS011;18017;50.124;8.688;2022-08-19T08:11:12;1.27;;;0.70;;
31386;SDS011;18017;50.124;8.688;2022-08-19T08:13:39;1.08;;;0.60;;
31386;SDS011;18017;50.124;8.688;2022-08-19T08:16:06;1.67;;;0.70;;
31386;SDS011;18017;50.124;8.688;2022-08-19T08:18:32;2.30;;;0.60;;
31386;SDS011;18017;50.124;8.688;2022-08-19T08:20:59;5.90;;;0.77;;
31386;SDS011;18017;50.124;8.688;2022-08-19T08:23:24;0.93;;;0.60;;
31386;SDS011;18017;50.124;8.688;2022-08-19T08:25:51;1.63;;;0.60;;
31386;SDS011;18017;50.124;8.688;2022-08-19T08:28:18;3.03;;;0.70;;
31386;SDS011;18017;50.124;8.688;2022-08-19T08:30:44;1.73;;;0.75;;
31386;SDS011;18017;50.124;8.688;2022-08-19T08:33:12;3.30;;;0.50;;
31386;SDS011;18017;50.124;8.688;2022-08-19T08:35:39;1.08;;;0.45;;
31386;SDS011;18017;50.124;8.688;2022-08-19T08:38:07;2.55;;;0.43;;
31386;SDS011;18017;50.124;8.688;2022-08-19T08:40:37;2.20;;;0.52;;
31386;SDS011;18017;50.124;8.688;2022-08-19T08:43:08;2.75;;;0.50;;
31386;SDS011;18017;50.124;8.688;2022-08-19T08:45:36;3.08;;;0.45;;
31386;SDS011;18017;50.124;8.688;2022-08-19T08:51:02;2.38;;;0.50;;
31386;SDS011;18017;50.124;8.688;2022-08-19T08:53:31;0.80;;;0.20;;
31386;SDS011;18017;50.124;8.688;2022-08-19T08:56:00;2.22;;;0.57;;
31386;SDS011;18017;50.124;8.688;2022-08-19T08:59:16;2.80;;;0.60;;
31386;SDS011;18017;50.124;8.688;2022-08-19T09:01:23;2.38;;;0.50;;
31386;SDS011;18017;50.124;8.688;2022-08-19T09:03:49;3.95;;;0.50;;
31386;SDS011;18017;50.124;8.688;2022-08-19T09:06:21;1.50;;;0.50;;
31386;SDS011;18017;50.124;8.688;2022-08-19T09:09:10;2.45;;;0.60;;
31386;SDS011;18017;50.124;8.688;2022-08-19T09:12:18;1.88;;;0.50;;
31386;SDS011;18017;50.124;8.688;2022-08-19T09:15:07;1.17;;;0.40;;
31386;SDS011;18017;50.124;8.688;2022-08-19T09:17:36;1.38;;;0.40;;
31386;SDS011;18017;50.124;8.688;2022-08-19T09:20:22;1.25;;;0.50;;
31386;SDS011;18017;50.124;8.688;2022-08-19T09:22:48;1.75;;;0.50;;
31386;SDS011;18017;50.124;8.688;2022-08-19T09:25:17;8.27;;;0.70;;
31386;SDS011;18017;50.124;8.688;2022-08-19T09:27:47;2.15;;;0.70;;
31386;SDS011;18017;50.124;8.688;2022-08-19T09:30:15;2.35;;;0.57;;
31386;SDS011;18017;50.124;8.688;2022-08-19T09:32:46;1.27;;;0.55;;
31386;SDS011;18017;50.124;8.688;2022-08-19T09:35:12;3.22;;;0.77;;
31386;SDS011;18017;50.124;8.688;2022-08-19T09:37:39;3.35;;;0.50;;
31386;SDS011;18017;50.124;8.688;2022-08-19T09:40:05;2.45;;;0.65;;
31386;SDS011;18017;50.124;8.688;2022-08-19T09:42:32;3.78;;;0.60;;
31386;SDS011;18017;50.124;8.688;2022-08-19T09:44:58;1.48;;;0.57;;
31386;SDS011;18017;50.124;8.688;2022-08-19T09:47:24;1.63;;;0.60;;
31386;SDS011;18017;50.124;8.688;2022-08-19T09:49:50;1.52;;;0.65;;
31386;SDS011;18017;50.124;8.688;2022-08-19T09:52:16;2.58;;;0.47;;
31386;SDS011;18017;50.124;8.688;2022-08-19T09:54:43;3.55;;;0.60;;
31386;SDS011;18017;50.124;8.688;2022-08-19T09:57:08;2.97;;;0.40;;
31386;SDS011;18017;50.124;8.688;2022-08-19T09:59:34;4.45;;;0.80;;
31386;SDS011;18017;50.124;8.688;2022-08-19T10:02:00;2.55;;;0.40;;
31386;SDS011;18017;50.124;8.688;2022-08-19T10:04:26;3.22;;;0.57;;
31386;SDS011;18017;50.124;8.688;2022-08-19T10:07:11;2.30;;;0.60;;
31386;SDS011;18017;50.124;8.688;2022-08-19T10:09:37;1.23;;;0.50;;
31386;SDS011;18017;50.124;8.688;2022-08-19T10:12:04;1.35;;;0.60;;
31386;SDS011;18017;50.124;8.688;2022-08-19T10:14:30;3.08;;;0.60;;
31386;SDS011;18017;50.124;8.688;2022-08-19T10:16:55;7.43;;;0.70;;
31386;SDS011;18017;50.124;8.688;2022-08-19T10:19:21;3.22;;;0.60;;
31386;SDS011;18017;50.124;8.688;2022-08-19T10:21:47;1.38;;;0.70;;
31386;SDS011;18017;50.124;8.688;2022-08-19T10:24:13;1.52;;;0.75;;
31386;SDS011;18017;50.124;8.688;2022-08-19T10:26:39;1.55;;;0.60;;
31386;SDS011;18017;50.124;8.688;2022-08-19T10:29:12;2.30;;;0.70;;
31386;SDS011;18017;50.124;8.688;2022-08-19T10:31:40;3.63;;;0.70;;
31386;SDS011;18017;50.124;8.688;2022-08-19T10:34:06;1.77;;;0.90;;
31386;SDS011;18017;50.124;8.688;2022-08-19T10:36:33;3.65;;;0.90;;
31386;SDS011;18017;50.124;8.688;2022-08-19T10:39:02;2.15;;;0.75;;
31386;SDS011;18017;50.124;8.688;2022-08-19T10:41:31;2.22;;;0.60;;
31386;SDS011;18017;50.124;8.688;2022-08-19T10:44:00;1.60;;;0.73;;
31386;SDS011;18017;50.124;8.688;2022-08-19T10:46:30;5.80;;;0.90;;
31386;SDS011;18017;50.124;8.688;2022-08-19T10:48:57;2.42;;;0.70;;
31386;SDS011;18017;50.124;8.688;2022-08-19T10:51:24;1.33;;;0.65;;
31386;SDS011;18017;50.124;8.688;2022-08-19T10:54:08;2.72;;;0.70;;
31386;SDS011;18017;50.124;8.688;2022-08-19T10:56:34;1.15;;;0.60;;
31386;SDS011;18017;50.124;8.688;2022-08-19T10:59:16;3.63;;;0.70;;
31386;SDS011;18017;50.124;8.688;2022-08-19T11:01:53;1.88;;;0.68;;
31386;SDS011;18017;50.124;8.688;2022-08-19T11:04:23;2.15;;;0.60;;
31386;SDS011;18017;50.124;8.688;2022-08-19T11:06:49;2.58;;;0.75;;
31386;SDS011;18017;50.124;8.688;2022-08-19T11:09:22;1.30;;;0.63;;
31386;SDS011;18017;50.124;8.688;2022-08-19T11:14:21;1.35;;;0.60;;
31386;SDS011;18017;50.124;8.688;2022-08-19T11:16:48;1.15;;;0.80;;
31386;SDS011;18017;50.124;8.688;2022-08-19T11:19:15;10.60;;;1.00;;
31386;SDS011;18017;50.124;8.688;2022-08-19T11:21:46;0.83;;;0.70;;
31386;SDS011;18017;50.124;8.688;2022-08-19T11:24:14;2.88;;;0.73;;
31386;SDS011;18017;50.124;8.688;2022-08-19T11:26:45;1.60;;;0.70;;
31386;SDS011;18017;50.124;8.688;2022-08-19T11:29:14;2.97;;;0.73;;
31386;SDS011;18017;50.124;8.688;2022-08-19T11:31:43;3.53;;;0.70;;
31386;SDS011;18017;50.124;8.688;2022-08-19T11:34:11;2.55;;;1.00;;
31386;SDS011;18017;50.124;8.688;2022-08-19T11:36:40;5.83;;;1.07;;
31386;SDS011;18017;50.124;8.688;2022-08-19T11:39:07;1.20;;;0.77;;
31386;SDS011;18017;50.124;8.688;2022-08-19T11:41:35;2.47;;;1.00;;
31386;SDS011;18017;50.124;8.688;2022-08-19T11:44:01;3.08;;;0.75;;
31386;SDS011;18017;50.124;8.688;2022-08-19T11:46:29;1.50;;;0.95;;
31386;SDS011;18017;50.124;8.688;2022-08-19T11:48:58;1.90;;;0.80;;
31386;SDS011;18017;50.124;8.688;2022-08-19T11:51:26;2.95;;;1.10;;
31386;SDS011;18017;50.124;8.688;2022-08-19T11:53:56;3.67;;;1.10;;
31386;SDS011;18017;50.124;8.688;2022-08-19T11:56:23;3.25;;;1.30;;
31386;SDS011;18017;50.124;8.688;2022-08-19T11:58:50;3.63;;;1.05;;
31386;SDS011;18017;50.124;8.688;2022-08-19T12:01:17;2.88;;;1.10;;
31386;SDS011;18017;50.124;8.688;2022-08-19T12:03:44;2.65;;;0.93;;
31386;SDS011;18017;50.124;8.688;2022-08-19T12:06:13;3.75;;;1.20;;
31386;SDS011;18017;50.124;8.688;2022-08-19T12:09:01;4.10;;;1.00;;
31386;SDS011;18017;50.124;8.688;2022-08-19T12:11:29;1.58;;;1.20;;
31386;SDS011;18017;50.124;8.688;2022-08-19T12:13:55;1.95;;;1.10;;
31386;SDS011;18017;50.124;8.688;2022-08-19T12:16:23;3.00;;;0.90;;
31386;SDS011;18017;50.124;8.688;2022-08-19T12:18:50;2.33;;;1.00;;
31386;SDS011;18017;50.124;8.688;2022-08-19T12:21:17;2.65;;;1.05;;
31386;SDS011;18017;50.124;8.688;2022-08-19T12:23:48;2.42;;;0.90;;
31386;SDS011;18017;50.124;8.688;2022-08-19T12:26:16;1.20;;;0.90;;
31386;SDS011;18017;50.124;8.688;2022-08-19T12:28:43;1.40;;;1.10;;
31386;SDS011;18017;50.124;8.688;2022-08-19T12:31:09;3.08;;;1.00;;
31386;SDS011;18017;50.124;8.688;2022-08-19T12:33:39;2.83;;;1.27;;
31386;SDS011;18017;50.124;8.688;2022-08-19T12:36:06;1.73;;;1.10;;
31386;SDS011;18017;50.124;8.688;2022-08-19T12:38:34;5.28;;;1.10;;
31386;SDS011;18017;50.124;8.688;2022-08-19T12:41:00;1.83;;;1.00;;
31386;SDS011;18017;50.124;8.688;2022-08-19T12:43:28;2.47;;;0.77;;
31386;SDS011;18017;50.124;8.688;2022-08-19T12:45:55;2.55;;;1.05;;
31386;SDS011;18017;50.124;8.688;2022-08-19T12:48:20;2.60;;;0.90;;
31386;SDS011;18017;50.124;8.688;2022-08-19T12:50:46;2.55;;;0.80;;
31386;SDS011;18017;50.124;8.688;2022-08-19T12:53:12;1.63;;;0.93;;
31386;SDS011;18017;50.124;8.688;2022-08-19T12:55:38;3.65;;;1.05;;
31386;SDS011;18017;50.124;8.688;2022-08-19T12:58:03;2.58;;;1.00;;
31386;SDS011;18017;50.124;8.688;2022-08-19T13:00:29;1.58;;;1.15;;
31386;SDS011;18017;50.124;8.688;2022-08-19T13:02:57;1.00;;;0.90;;
31386;SDS011;18017;50.124;8.688;2022-08-19T13:05:25;1.52;;;1.23;;
31386;SDS011;18017;50.124;8.688;2022-08-19T13:07:53;2.90;;;1.00;;
31386;SDS011;18017;50.124;8.688;2022-08-19T13:10:25;1.50;;;1.25;;
31386;SDS011;18017;50.124;8.688;2022-08-19T13:12:56;2.08;;;0.98;;
31386;SDS011;18017;50.124;8.688;2022-08-19T13:15:24;2.50;;;1.13;;
31386;SDS011;18017;50.124;8.688;2022-08-19T13:17:51;1.30;;;0.90;;
31386;SDS011;18017;50.124;8.688;2022-08-19T13:20:18;1.42;;;0.90;;
31386;SDS011;18017;50.124;8.688;2022-08-19T13:22:45;3.53;;;1.00;;
31386;SDS011;18017;50.124;8.688;2022-08-19T13:25:13;1.98;;;0.90;;
31386;SDS011;18017;50.124;8.688;2022-08-19T13:27:39;1.10;;;0.82;;
31386;SDS011;18017;50.124;8.688;2022-08-19T13:30:06;1.70;;;0.90;;
31386;SDS011;18017;50.124;8.688;2022-08-19T13:32:51;3.50;;;0.98;;
31386;SDS011;18017;50.124;8.688;2022-08-19T13:35:38;1.15;;;0.60;;
31386;SDS011;18017;50.124;8.688;2022-08-19T13:38:19;4.47;;;0.68;;
31386;SDS011;18017;50.124;8.688;2022-08-19T13:40:46;2.08;;;0.70;;
31386;SDS011;18017;50.124;8.688;2022-08-19T13:43:14;2.65;;;0.60;;
31386;SDS011;18017;50.124;8.688;2022-08-19T13:45:40;2.67;;;0.70;;
31386;SDS011;18017;50.124;8.688;2022-08-19T13:48:06;2.95;;;0.80;;
31386;SDS011;18017;50.124;8.688;2022-08-19T13:50:34;0.98;;;0.70;;
31386;SDS011;18017;50.124;8.688;2022-08-19T13:53:06;3.72;;;0.80;;
31386;SDS011;18017;50.124;8.688;2022-08-19T13:55:33;2.63;;;0.80;;
31386;SDS011;18017;50.124;8.688;2022-08-19T13:58:00;1.73;;;0.70;;
31386;SDS011;18017;50.124;8.688;2022-08-19T14:00:31;1.27;;;0.60;;
31386;SDS011;18017;50.124;8.688;2022-08-19T14:02:58;1.02;;;0.60;;
31386;SDS011;18017;50.124;8.688;2022-08-19T14:05:25;2.40;;;0.63;;
31386;SDS011;18017;50.124;8.688;2022-08-19T14:07:52;1.63;;;0.50;;
31386;SDS011;18017;50.124;8.688;2022-08-19T14:10:17;1.08;;;0.50;;
31386;SDS011;18017;50.124;8.688;2022-08-19T14:12:44;0.90;;;0.60;;
31386;SDS011;18017;50.124;8.688;2022-08-19T14:15:11;5.32;;;0.50;;
31386;SDS011;18017;50.124;8.688;2022-08-19T14:17:38;1.83;;;0.63;;
31386;SDS011;18017;50.124;8.688;2022-08-19T14:20:06;3.30;;;0.60;;
31386;SDS011;18017;50.124;8.688;2022-08-19T14:22:37;1.80;;;0.50;;
31386;SDS011;18017;50.124;8.688;2022-08-19T14:25:05;1.45;;;0.70;;
31386;SDS011;18017;50.124;8.688;2022-08-19T14:27:36;2.25;;;0.45;;
31386;SDS011;18017;50.124;8.688;2022-08-19T14:30:06;1.67;;;0.60;;
31386;SDS011;18017;50.124;8.688;2022-08-19T14:32:34;3.05;;;0.57;;
31386;SDS011;18017;50.124;8.688;2022-08-19T14:35:00;0.95;;;0.60;;
31386;SDS011;18017;50.124;8.688;2022-08-19T14:37:26;1.95;;;0.45;;
31386;SDS011;18017;50.124;8.688;2022-08-19T14:39:52;2.08;;;0.55;;
31386;SDS011;18017;50.124;8.688;2022-08-19T14:42:18;0.85;;;0.50;;
31386;SDS011;18017;50.124;8.688;2022-08-19T14:44:44;2.13;;;0.57;;
31386;SDS011;18017;50.124;8.688;2022-08-19T14:47:10;3.35;;;0.65;;
31386;SDS011;18017;50.124;8.688;2022-08-19T14:49:36;3.80;;;0.60;;
31386;SDS011;18017;50.124;8.688;2022-08-19T14:52:02;3.17;;;0.50;;
31386;SDS011;18017;50.124;8.688;2022-08-19T14:54:28;3.03;;;0.50;;
31386;SDS011;18017;50.124;8.688;2022-08-19T14:56:54;0.63;;;0.40;;
31386;SDS011;18017;50.124;8.688;2022-08-19T14:59:20;1.50;;;0.40;;
31386;SDS011;18017;50.124;8.688;2022-08-19T15:01:46;0.90;;;0.50;;